Deer Park, WA (99006)

2:15 PM PDT on August 21, 2014 (GMT -0700)
800 North Vernon Ave | Change Station
CLOSE
Current Station
Personal Weather Station
Location: Deer Park, WA
Elevation: 2132 ft
Nearby Weather Stations

Elev 2132 ft 47.96 °N, 117.48 °W | Updated 16 seconds ago

Scattered Clouds
Scattered Clouds
77.4 °F
Feels Like 77 °F
N
0.0
Wind Variable Wind from SE
Gusts 0.0 mph

Today
High -- | Low -- °F
--% Chance of Precip.
Yesterday
High -- | Low -- °F
Precip. -- in
5:53 AM 7:51 PM
Waning Crescent, 12% visible
Pressure 29.94 in
Visibility 10.0 miles
Clouds Few 5500 ft
Scattered Clouds 9000 ft
Heat Index 77 °F
Dew Point 33 °F
Humidity 20%
Rainfall 0.04 in
Snow Depth 0 in
UV 6 out of 12
Pollen 5.60 out of 12
PM2.5 Good
Flu Activity Not available.
METAR KDEW 212053Z AUTO 15004KT 10SM FEW055 SCT090 24/10 A2996 RMK AO2 SLP136 T02440100 58013

More Conditions Fewer Conditions

Pressure 29.94 in
Visibility 10.0 miles
Clouds Few 5500 ft
Scattered Clouds 9000 ft
Heat Index 77 °F
Dew Point 33 °F
Humidity 20%
Rainfall 0.04 in
Snow Depth 0 in
UV 6 out of 12
Pollen 5.60 out of 12
PM2.5 Good
Flu Activity Not available.
METAR KDEW 212053Z AUTO 15004KT 10SM FEW055 SCT090 24/10 A2996 RMK AO2 SLP136 T02440100 58013

More Conditions Fewer Conditions

Nowcast | as of 12:51 PM PDT on August 21, 2014

Showers and thunderstorms will be on the increase between 1 PM and 2 PM over the Okanogan Highlands and northeast mountains of Washington. The communities of Republic...Keller...Curlew...Kettle Falls...Northport...and Colville will have the potential to experience several rounds of brief heavy rainfall and cloud to ground lightning this afternoon and evening as individual cells track to the northeast around 20 mph.

×

10-Day Weather Forecast

Almanac

Astronomy

Aug. 21, 2014 Rise Set
Actual Time 5:53 AM PDT 7:51 PM PDT
Civil Twilight 5:19 AM PDT 8:25 PM PDT
Nautical Twilight 4:38 AM PDT 9:06 PM PDT
Astronomical Twilight 3:52 AM PDT 9:51 PM PDT
Moon 2:19 AM PDT 5:29 PM PDT
Length of Visible Light 15h 05m
Length of Day
13h 58m
Tomorrow will be 3m 14s shorter.
Waning Crescent, 12% of the Moon is Illuminated
Today
Waning Crescent
Aug 25
New
Sep 2
First Quarter
Sep 8
Full
Sep 15
Last Quarter

Today's Extremes

State Highs State Lows

Community

WunderPhotos

Upload Photos

1,746,019 photos uploaded!

WunderBlogs® & News

Nearby

Air Quality

  Air Quality AQ Index Pollutant
Yesterday Good
OZONE
Yesterday Good
PM10
Current Good
PM2.5
Thursday Good
PM10
Thursday Good
OZONE
Friday Good
PM10
Friday Good
OZONE

Snow Depth

Station Depth Elevation
Quartz Peak 0 in 4700 ft
Sentinel Butte 0 in 4920 ft
Moses Mountain 1 in 5300 ft
Sourdough Gulch 1 in 4000 ft
Grouse Camp 0 in 5380 ft

Earthquake Activity

City Distance Mag. Time & Date
No recent earthquake activity has been reported nearby.
Minimum magnitude displayed is 2.5.

Coastal Water Temperatures

Place Temperature
No Stations Reporting

Nearby Weather Stations